Time;durP1;ratioP1;P1;durP2;ratioP2;P2;SDS_P1;SDS_P2;PMS_P1;PMS_P2;Temp;Humidity;BMP_temperature;BMP_pressure;BME280_temperature;BME280_humidity;BME280_pressure;Samples;Min_cycle;Max_cycle;Signal;HPM_P1;HPM_P2
2023/01/15 00:00:32;;;;;;;0.50;0.30;;;9.70;99.90;;;;;;4935901;29;20193;-70
2023/01/15 00:02:58;;;;;;;0.87;0.33;;;9.50;99.90;;;;;;4936005;29;20212;-70
2023/01/15 00:05:23;;;;;;;1.40;0.60;;;9.40;99.90;;;;;;4921666;29;20288;-72
2023/01/15 00:07:52;;;;;;;0.80;0.43;;;9.30;99.90;;;;;;4917342;29;20174;-70
2023/01/15 00:10:20;;;;;;;0.97;0.60;;;9.30;99.90;;;;;;4919672;29;20178;-71
2023/01/15 00:12:46;;;;;;;0.57;0.30;;;9.20;99.90;;;;;;4937156;29;20392;-72
2023/01/15 00:15:15;;;;;;;0.67;0.40;;;9.10;99.90;;;;;;4936298;29;20235;-73
2023/01/15 00:17:47;;;;;;;1.20;0.40;;;9.10;99.90;;;;;;4936310;29;20177;-72
2023/01/15 00:20:13;;;;;;;1.27;0.60;;;9.10;99.90;;;;;;4936224;29;20212;-72
2023/01/15 00:22:43;;;;;;;0.73;0.40;;;9.00;99.90;;;;;;4936313;29;20177;-72
2023/01/15 00:27:56;;;;;;;1.50;0.50;;;8.90;99.90;;;;;;4936729;29;20284;-71
2023/01/15 00:30:23;;;;;;;1.00;0.43;;;8.80;99.90;;;;;;4935829;29;20189;-70
2023/01/15 00:32:49;;;;;;;2.43;0.47;;;8.70;99.90;;;;;;4930555;29;20178;-70
2023/01/15 00:35:22;;;;;;;0.63;0.40;;;8.60;99.90;;;;;;4935546;29;20188;-71
2023/01/15 00:37:48;;;;;;;0.80;0.40;;;8.60;99.90;;;;;;4934892;29;20178;-71
2023/01/15 00:40:18;;;;;;;1.17;0.40;;;8.50;99.90;;;;;;4921039;29;20194;-70
2023/01/15 00:42:44;;;;;;;0.60;0.30;;;8.50;99.90;;;;;;4936203;29;20182;-70
2023/01/15 00:45:11;;;;;;;1.43;0.50;;;8.40;99.90;;;;;;4935502;29;20193;-71
2023/01/15 00:47:41;;;;;;;0.97;0.33;;;8.30;99.90;;;;;;4935954;29;20186;-71
2023/01/15 00:50:11;;;;;;;0.70;0.37;;;8.40;99.90;;;;;;4939537;29;20192;-71
2023/01/15 00:52:37;;;;;;;1.47;0.50;;;8.30;99.90;;;;;;4937325;29;20212;-71
2023/01/15 00:55:07;;;;;;;0.60;0.40;;;8.30;99.90;;;;;;4934609;29;20524;-72
2023/01/15 00:57:33;;;;;;;1.03;0.50;;;8.20;99.90;;;;;;4939325;29;20186;-71
2023/01/15 00:59:58;;;;;;;0.80;0.40;;;8.20;99.90;;;;;;4939464;29;20327;-72
2023/01/15 01:02:24;;;;;;;1.43;0.43;;;8.20;99.90;;;;;;4939756;29;20268;-72
2023/01/15 01:04:53;;;;;;;1.30;0.37;;;8.20;99.90;;;;;;4933095;29;20236;-70
2023/01/15 01:07:18;;;;;;;0.80;0.40;;;8.20;99.90;;;;;;4937718;29;20205;-71
2023/01/15 01:09:44;;;;;;;0.70;0.40;;;8.20;99.90;;;;;;4938981;29;20197;-72
2023/01/15 01:12:10;;;;;;;2.20;0.50;;;8.30;99.90;;;;;;4939185;29;20193;-70
2023/01/15 01:14:36;;;;;;;1.40;0.50;;;8.20;99.90;;;;;;4938953;29;20184;-73
2023/01/15 01:17:03;;;;;;;1.07;0.63;;;8.20;99.90;;;;;;4938947;29;20192;-72
2023/01/15 01:19:30;;;;;;;0.47;0.30;;;8.30;99.90;;;;;;4939157;29;20369;-73
2023/01/15 01:21:56;;;;;;;0.67;0.40;;;8.30;99.90;;;;;;4919929;29;20178;-72
2023/01/15 01:24:26;;;;;;;0.63;0.47;;;8.30;99.90;;;;;;4934557;29;20205;-73
2023/01/15 01:26:52;;;;;;;0.70;0.40;;;8.30;99.90;;;;;;4938703;29;20252;-72
2023/01/15 01:29:21;;;;;;;1.60;0.80;;;8.30;99.90;;;;;;4938598;29;20287;-70
2023/01/15 01:31:47;;;;;;;1.13;0.30;;;8.30;99.90;;;;;;4938661;29;20174;-70
2023/01/15 01:34:16;;;;;;;0.77;0.40;;;8.30;99.90;;;;;;4938877;29;20181;-70
2023/01/15 01:36:43;;;;;;;0.87;0.40;;;8.30;99.90;;;;;;4938591;29;20193;-72
2023/01/15 01:39:14;;;;;;;0.90;0.30;;;8.30;99.90;;;;;;4937994;29;20449;-67
2023/01/15 01:41:42;;;;;;;0.80;0.40;;;8.30;99.90;;;;;;4938536;29;20173;-73
2023/01/15 01:44:30;;;;;;;0.67;0.40;;;8.30;99.90;;;;;;4938557;29;20184;-70
2023/01/15 01:46:56;;;;;;;1.17;0.47;;;8.30;99.90;;;;;;4938271;29;20169;-72
2023/01/15 01:49:23;;;;;;;1.00;0.37;;;8.30;99.90;;;;;;4932301;29;20185;-71
2023/01/15 01:52:02;;;;;;;1.67;0.40;;;8.30;99.90;;;;;;4938321;29;20188;-73
2023/01/15 01:54:33;;;;;;;0.77;0.40;;;8.30;99.90;;;;;;4938348;29;20173;-73
2023/01/15 01:57:02;;;;;;;1.57;0.40;;;8.30;99.90;;;;;;4926633;29;20256;-71
2023/01/15 01:59:30;;;;;;;0.40;0.30;;;8.30;99.90;;;;;;4918146;29;20261;-72
2023/01/15 02:01:58;;;;;;;0.77;0.30;;;8.30;99.90;;;;;;4934830;29;20182;-73
2023/01/15 02:04:27;;;;;;;0.40;0.30;;;8.30;99.90;;;;;;4938268;29;20201;-73
2023/01/15 02:06:57;;;;;;;1.23;0.43;;;8.30;99.90;;;;;;4938174;29;20177;-71
2023/01/15 02:09:23;;;;;;;0.30;0.30;;;8.30;99.90;;;;;;4939265;29;20184;-74
2023/01/15 02:11:54;;;;;;;1.40;0.50;;;8.30;99.90;;;;;;4938158;29;20181;-72
2023/01/15 02:14:34;;;;;;;0.70;0.30;;;8.20;99.90;;;;;;4938017;29;20331;-73
2023/01/15 02:17:02;;;;;;;0.37;0.37;;;8.30;99.90;;;;;;4937741;29;20169;-70
2023/01/15 02:19:46;;;;;;;0.57;0.30;;;8.30;99.90;;;;;;4937866;29;20185;-73
2023/01/15 02:22:46;;;;;;;0.70;0.40;;;8.20;99.90;;;;;;4922267;29;20247;-72
2023/01/15 02:25:30;;;;;;;0.77;0.20;;;8.30;99.90;;;;;;4946504;29;20271;-73
2023/01/15 02:28:14;;;;;;;1.00;0.33;;;8.20;99.90;;;;;;4937203;29;20173;-74
2023/01/15 02:30:51;;;;;;;0.50;0.30;;;8.20;99.90;;;;;;4938368;29;20182;-73
2023/01/15 02:33:29;;;;;;;0.60;0.40;;;8.20;99.90;;;;;;4924756;29;20202;-73
2023/01/15 02:36:05;;;;;;;0.67;0.40;;;8.20;99.90;;;;;;4937624;29;20259;-73
2023/01/15 02:38:38;;;;;;;0.40;0.20;;;8.20;99.90;;;;;;4937433;29;20173;-71
2023/01/15 02:41:06;;;;;;;0.63;0.30;;;8.20;99.90;;;;;;4937247;29;20219;-72
2023/01/15 02:43:35;;;;;;;1.07;0.30;;;8.20;99.90;;;;;;4936973;29;20185;-74
2023/01/15 02:46:05;;;;;;;1.07;0.30;;;8.20;99.90;;;;;;4937745;29;20296;-74
2023/01/15 02:48:36;;;;;;;1.47;0.40;;;8.10;99.90;;;;;;4937215;29;20182;-73
2023/01/15 02:51:15;;;;;;;0.63;0.30;;;8.20;99.90;;;;;;4928027;29;20193;-74
2023/01/15 02:53:43;;;;;;;0.67;0.40;;;8.30;99.90;;;;;;4937246;29;20165;-73
2023/01/15 02:56:13;;;;;;;1.90;0.30;;;8.20;99.90;;;;;;4938541;29;20227;-74
2023/01/15 02:58:41;;;;;;;0.90;0.40;;;8.10;99.90;;;;;;4936167;29;20221;-73
2023/01/15 03:01:15;;;;;;;1.10;0.47;;;8.20;99.90;;;;;;4934129;29;20192;-73
2023/01/15 03:03:54;;;;;;;0.93;0.30;;;8.10;99.90;;;;;;4933981;29;20167;-72
2023/01/15 03:06:38;;;;;;;0.20;0.17;;;8.20;99.90;;;;;;4936784;29;20245;-72
2023/01/15 03:09:05;;;;;;;0.53;0.30;;;8.10;99.90;;;;;;4936975;29;20183;-73
2023/01/15 03:11:36;;;;;;;0.57;0.20;;;8.20;99.90;;;;;;4936769;29;20181;-74
2023/01/15 03:14:08;;;;;;;0.43;0.30;;;8.10;99.90;;;;;;4937056;29;20189;-72
2023/01/15 03:16:37;;;;;;;1.17;0.30;;;8.20;99.90;;;;;;4933641;29;20237;-72
2023/01/15 03:19:33;;;;;;;0.50;0.30;;;8.20;99.90;;;;;;4941574;29;20191;-73
2023/01/15 03:22:27;;;;;;;0.57;0.27;;;8.20;99.90;;;;;;4920615;29;20219;-73
2023/01/15 03:25:19;;;;;;;0.93;0.30;;;8.20;99.90;;;;;;4936611;29;20197;-73
2023/01/15 03:27:47;;;;;;;1.27;0.30;;;8.20;99.90;;;;;;4937335;29;20196;-74
2023/01/15 03:30:21;;;;;;;0.77;0.20;;;8.20;99.90;;;;;;4936670;29;20281;-75
2023/01/15 03:32:47;;;;;;;1.13;0.40;;;8.20;99.90;;;;;;4936569;29;20179;-75
2023/01/15 03:35:47;;;;;;;0.93;0.30;;;8.30;99.90;;;;;;4936525;29;20173;-77
2023/01/15 03:38:18;;;;;;;0.73;0.30;;;8.20;99.90;;;;;;4936566;29;20181;-74
2023/01/15 03:41:05;;;;;;;0.47;0.27;;;8.20;99.90;;;;;;4934405;29;20216;-75
2023/01/15 03:44:00;;;;;;;0.90;0.40;;;8.20;99.90;;;;;;4932973;29;20185;-75
2023/01/15 03:46:29;;;;;;;0.70;0.30;;;8.30;99.90;;;;;;4945057;29;20189;-76
2023/01/15 03:49:36;;;;;;;0.70;0.30;;;8.30;99.90;;;;;;4940752;29;20252;-76
2023/01/15 03:52:33;;;;;;;1.77;0.50;;;8.30;99.90;;;;;;4919742;29;20511;-75
2023/01/15 03:55:24;;;;;;;1.03;0.40;;;8.30;99.90;;;;;;4917752;29;20182;-75
2023/01/15 03:58:15;;;;;;;2.37;0.40;;;8.30;99.90;;;;;;4936500;29;20232;-78
2023/01/15 04:00:47;;;;;;;1.40;0.60;;;8.30;99.90;;;;;;4952350;29;20289;-79
2023/01/15 04:03:15;;;;;;;1.97;0.50;;;8.40;99.90;;;;;;4937433;29;20185;-75
2023/01/15 04:05:44;;;;;;;1.80;0.50;;;8.50;99.90;;;;;;4936086;29;20217;-77
2023/01/15 04:08:12;;;;;;;1.80;0.43;;;8.40;99.90;;;;;;4936283;29;20186;-76
2023/01/15 04:10:56;;;;;;;1.73;0.60;;;8.40;99.90;;;;;;4936392;29;20173;-77
2023/01/15 04:13:27;;;;;;;1.00;0.47;;;8.40;99.90;;;;;;4936276;29;20181;-78
2023/01/15 04:15:53;;;;;;;1.83;0.50;;;8.40;99.90;;;;;;4936591;29;20165;-77
2023/01/15 04:18:20;;;;;;;1.83;0.47;;;8.40;99.90;;;;;;4936213;29;20185;-76
2023/01/15 04:20:46;;;;;;;2.87;0.60;;;8.40;99.90;;;;;;4935230;29;20182;-77
2023/01/15 04:23:15;;;;;;;1.60;0.60;;;8.50;99.90;;;;;;4937206;29;20181;-76
2023/01/15 04:25:41;;;;;;;4.37;0.60;;;8.40;99.90;;;;;;4929822;29;20208;-79
2023/01/15 04:28:08;;;;;;;4.47;0.70;;;8.50;99.90;;;;;;4929140;29;20177;-77
2023/01/15 04:30:37;;;;;;;2.77;0.60;;;8.40;99.90;;;;;;4939714;29;20301;-75
2023/01/15 04:33:02;;;;;;;0.90;0.50;;;8.40;99.90;;;;;;4955046;29;20264;-76
2023/01/15 04:35:28;;;;;;;2.70;0.60;;;8.40;99.90;;;;;;4958824;29;20212;-75
2023/01/15 04:37:57;;;;;;;3.60;0.50;;;8.40;99.90;;;;;;4957869;29;20181;-78
2023/01/15 04:45:56;;;;;;;2.43;0.60;;;8.30;99.90;;;;;;4921248;29;20359;-75
2023/01/15 04:48:22;;;;;;;2.30;0.60;;;8.30;99.90;;;;;;4925179;29;20210;-77
2023/01/15 04:50:48;;;;;;;1.90;0.47;;;8.30;99.90;;;;;;4920229;29;20182;-75
2023/01/15 04:53:13;;;;;;;1.53;0.77;;;8.30;99.90;;;;;;4920426;29;20261;-75
2023/01/15 04:55:39;;;;;;;0.83;0.50;;;8.30;99.90;;;;;;4920474;29;20292;-74
2023/01/15 04:58:05;;;;;;;4.87;0.93;;;8.30;99.90;;;;;;4920514;29;20381;-77
2023/01/15 05:00:30;;;;;;;1.97;0.60;;;8.40;99.90;;;;;;4936617;29;20476;-74
2023/01/15 05:02:58;;;;;;;2.77;0.60;;;8.30;99.90;;;;;;4935848;29;20214;-77
2023/01/15 05:05:24;;;;;;;1.40;0.43;;;8.30;99.90;;;;;;4942754;29;20224;-76
2023/01/15 05:07:49;;;;;;;1.90;0.40;;;8.30;99.90;;;;;;4939571;29;20186;-78
2023/01/15 05:10:17;;;;;;;3.40;0.60;;;8.30;99.90;;;;;;4937138;29;20182;-77
2023/01/15 05:12:43;;;;;;;1.77;0.60;;;8.30;99.90;;;;;;4920216;29;20185;-75
2023/01/15 05:15:09;;;;;;;3.43;0.70;;;8.40;99.90;;;;;;4920747;29;20186;-77
2023/01/15 05:17:34;;;;;;;4.40;0.70;;;8.40;99.90;;;;;;4938948;29;20191;-76
2023/01/15 05:20:00;;;;;;;1.57;0.40;;;8.30;99.90;;;;;;4938968;29;20276;-77
2023/01/15 05:22:29;;;;;;;2.10;0.57;;;8.40;99.90;;;;;;4939262;29;20227;-77
2023/01/15 05:24:54;;;;;;;2.10;0.50;;;8.40;99.90;;;;;;4938617;29;20220;-76
2023/01/15 05:27:20;;;;;;;2.43;0.73;;;8.40;99.90;;;;;;4939081;29;20181;-77
2023/01/15 05:29:46;;;;;;;2.40;0.50;;;8.40;99.90;;;;;;4938402;29;20213;-76
2023/01/15 05:32:14;;;;;;;1.33;0.50;;;8.40;99.90;;;;;;4938818;29;20231;-78
2023/01/15 05:34:40;;;;;;;1.67;0.50;;;8.30;99.90;;;;;;4954352;28;20209;-77
2023/01/15 05:37:06;;;;;;;1.60;0.50;;;8.30;99.90;;;;;;4939362;29;20189;-78
2023/01/15 05:39:31;;;;;;;2.30;0.73;;;8.30;99.90;;;;;;4939078;29;20268;-78
2023/01/15 05:41:59;;;;;;;3.37;0.70;;;8.30;99.90;;;;;;4938911;29;20193;-78
2023/01/15 05:44:27;;;;;;;1.70;0.60;;;8.30;99.90;;;;;;4938594;29;20189;-77
2023/01/15 05:46:55;;;;;;;1.90;0.70;;;8.40;99.90;;;;;;4938790;29;20236;-76
2023/01/15 05:49:23;;;;;;;2.33;0.47;;;8.30;99.90;;;;;;4939190;29;20192;-76
2023/01/15 05:51:50;;;;;;;1.47;0.50;;;8.20;99.90;;;;;;4935885;29;20169;-76
2023/01/15 05:54:22;;;;;;;2.60;0.60;;;8.20;99.90;;;;;;4958120;29;20269;-77
2023/01/15 05:56:48;;;;;;;1.00;0.40;;;8.20;99.90;;;;;;4956318;29;20169;-77
2023/01/15 05:59:17;;;;;;;1.47;0.50;;;8.20;99.90;;;;;;4933285;29;20189;-77
2023/01/15 06:01:48;;;;;;;1.10;0.50;;;8.20;99.90;;;;;;4928229;29;20244;-75
2023/01/15 06:04:14;;;;;;;1.20;0.53;;;8.20;99.90;;;;;;4939064;29;20197;-74
2023/01/15 06:06:41;;;;;;;1.60;0.63;;;8.10;99.90;;;;;;4938802;29;20197;-78
2023/01/15 06:09:07;;;;;;;2.40;0.50;;;8.10;99.90;;;;;;4938583;29;20182;-78
2023/01/15 06:11:33;;;;;;;1.13;0.40;;;8.10;99.90;;;;;;4938769;29;20213;-78
2023/01/15 06:13:59;;;;;;;1.97;0.43;;;8.10;99.90;;;;;;4937961;29;20208;-78
2023/01/15 06:16:25;;;;;;;2.47;0.60;;;8.00;99.90;;;;;;4938264;29;20189;-77
2023/01/15 06:18:53;;;;;;;3.23;0.60;;;8.00;99.90;;;;;;4937992;29;20213;-79
2023/01/15 06:21:21;;;;;;;0.97;0.30;;;8.00;99.90;;;;;;4938484;29;20181;-77
2023/01/15 06:23:47;;;;;;;2.10;0.40;;;7.90;99.90;;;;;;4937861;29;20189;-76
2023/01/15 06:26:18;;;;;;;1.80;0.40;;;7.90;99.90;;;;;;4937664;29;20292;-76
2023/01/15 06:28:48;;;;;;;0.90;0.40;;;7.90;99.90;;;;;;4937718;29;20194;-76
2023/01/15 06:31:16;;;;;;;0.73;0.50;;;7.90;99.90;;;;;;4937712;29;20184;-77
2023/01/15 06:33:42;;;;;;;1.10;0.50;;;7.80;99.90;;;;;;4938207;29;20177;-78
2023/01/15 06:36:15;;;;;;;1.00;0.43;;;7.80;99.90;;;;;;4938148;29;20192;-76
2023/01/15 06:38:41;;;;;;;0.83;0.40;;;7.80;99.90;;;;;;4920692;29;20209;-76
2023/01/15 06:49:29;;;;;;;1.03;0.40;;;7.60;99.90;;;;;;4919576;29;20214;-77
2023/01/15 06:51:55;;;;;;;1.63;0.60;;;7.50;99.90;;;;;;4927750;29;20209;-78
2023/01/15 06:54:21;;;;;;;1.40;0.50;;;7.50;99.90;;;;;;4937429;29;20216;-78
2023/01/15 06:56:46;;;;;;;0.83;0.40;;;7.50;99.90;;;;;;4933944;29;20169;-77
2023/01/15 06:59:12;;;;;;;1.00;0.33;;;7.40;99.90;;;;;;4946580;29;20196;-78
2023/01/15 07:01:37;;;;;;;0.97;0.57;;;7.40;99.90;;;;;;4935213;29;20178;-79
2023/01/15 07:04:06;;;;;;;0.80;0.50;;;7.40;99.90;;;;;;4936540;29;20186;-78
2023/01/15 07:06:33;;;;;;;0.30;0.20;;;7.30;99.90;;;;;;4930113;29;20201;-75
2023/01/15 07:08:59;;;;;;;0.37;0.20;;;7.30;99.90;;;;;;4936453;29;20213;-77
2023/01/15 07:11:25;;;;;;;0.50;0.20;;;7.30;99.90;;;;;;4936858;29;20429;-77
2023/01/15 07:14:04;;;;;;;0.20;0.20;;;7.30;99.90;;;;;;4949388;29;20178;-76
2023/01/15 07:16:34;;;;;;;0.77;0.40;;;7.30;99.90;;;;;;4932541;29;20232;-78
2023/01/15 07:19:02;;;;;;;0.90;0.40;;;7.30;99.90;;;;;;4937130;29;20189;-77
2023/01/15 07:21:28;;;;;;;0.47;0.20;;;7.30;99.90;;;;;;4937243;29;20186;-77
2023/01/15 07:23:57;;;;;;;0.10;0.10;;;7.30;99.90;;;;;;4937041;29;20227;-77
2023/01/15 07:26:25;;;;;;;0.50;0.20;;;7.30;99.90;;;;;;4937171;29;20209;-78
2023/01/15 07:28:53;;;;;;;0.30;0.20;;;7.30;99.90;;;;;;4933526;29;20189;-77
2023/01/15 07:31:21;;;;;;;0.60;0.30;;;7.30;99.90;;;;;;4949083;29;20371;-77
2023/01/15 07:33:47;;;;;;;1.20;0.43;;;7.40;99.90;;;;;;4931978;29;20205;-77
2023/01/15 07:36:15;;;;;;;0.50;0.10;;;7.40;99.90;;;;;;4918020;29;20178;-77
2023/01/15 07:38:41;;;;;;;0.20;0.20;;;7.40;99.90;;;;;;4935033;29;20259;-79
2023/01/15 07:49:44;;;;;;;0.63;0.30;;;7.50;99.90;;;;;;4930645;29;20216;-76
2023/01/15 07:52:15;;;;;;;0.73;0.30;;;7.50;99.90;;;;;;4935005;29;20181;-73
2023/01/15 07:54:41;;;;;;;0.20;0.10;;;7.50;99.90;;;;;;4936513;29;20185;-77
2023/01/15 07:57:07;;;;;;;0.30;0.20;;;7.50;99.90;;;;;;4919610;29;20215;-74
2023/01/15 07:59:35;;;;;;;0.10;0.10;;;7.50;99.90;;;;;;4921856;29;20177;-80
2023/01/15 08:02:01;;;;;;;0.37;0.20;;;7.50;99.90;;;;;;4923515;29;20324;-78
2023/01/15 08:04:26;;;;;;;0.90;0.20;;;7.50;99.90;;;;;;4940421;29;20222;-76
2023/01/15 08:06:52;;;;;;;0.60;0.27;;;7.50;99.90;;;;;;4921838;29;20273;-78
2023/01/15 08:09:17;;;;;;;0.30;0.20;;;7.50;99.90;;;;;;4921757;29;20237;-78
2023/01/15 08:17:11;;;;;;;0.57;0.20;;;7.50;99.90;;;;;;4927248;29;20237;-74
2023/01/15 08:19:41;;;;;;;0.37;0.30;;;7.50;99.90;;;;;;4940008;29;20185;-77
2023/01/15 08:22:09;;;;;;;0.50;0.23;;;7.50;99.90;;;;;;4940537;29;20437;-76
2023/01/15 08:24:35;;;;;;;0.63;0.30;;;7.50;99.90;;;;;;4933967;29;20429;-78
2023/01/15 08:27:00;;;;;;;0.87;0.43;;;7.50;99.90;;;;;;4939896;29;20181;-77
2023/01/15 08:29:27;;;;;;;0.33;0.33;;;7.50;99.90;;;;;;4939503;29;20194;-77
2023/01/15 08:31:52;;;;;;;1.03;0.37;;;7.50;99.90;;;;;;4939795;29;20177;-78
2023/01/15 08:34:18;;;;;;;1.17;0.40;;;7.50;99.90;;;;;;4927275;29;20425;-77
2023/01/15 08:36:44;;;;;;;0.47;0.30;;;7.50;99.90;;;;;;4924900;29;20277;-77
2023/01/15 08:39:10;;;;;;;1.13;0.40;;;7.80;99.90;;;;;;4937760;29;20192;-75
2023/01/15 08:41:35;;;;;;;0.93;0.50;;;7.70;99.90;;;;;;4939859;29;20173;-78
2023/01/15 08:44:01;;;;;;;0.70;0.40;;;7.70;99.90;;;;;;4939411;29;20246;-74
2023/01/15 08:46:27;;;;;;;0.90;0.40;;;7.60;99.90;;;;;;4935426;29;20462;-79
2023/01/15 08:48:52;;;;;;;1.53;0.50;;;7.50;99.90;;;;;;4930126;29;20232;-76
2023/01/15 08:51:21;;;;;;;1.77;0.60;;;7.60;99.90;;;;;;4939143;29;20192;-78
2023/01/15 08:53:48;;;;;;;2.80;1.10;;;7.60;99.90;;;;;;4939689;29;20209;-77
2023/01/15 08:56:16;;;;;;;1.10;0.70;;;7.60;99.90;;;;;;4932226;29;20185;-77
2023/01/15 08:58:45;;;;;;;1.77;0.90;;;7.60;99.90;;;;;;4920906;29;20194;-79
2023/01/15 09:01:14;;;;;;;1.50;0.70;;;7.70;99.90;;;;;;4934931;29;20190;-75
2023/01/15 09:03:41;;;;;;;1.87;0.87;;;7.70;99.90;;;;;;4939562;29;20185;-77
2023/01/15 09:06:06;;;;;;;1.57;0.70;;;7.70;99.90;;;;;;4939359;29;20264;-77
2023/01/15 09:08:33;;;;;;;2.13;0.70;;;7.70;99.90;;;;;;4939039;29;20184;-78
2023/01/15 09:11:00;;;;;;;1.03;0.70;;;7.70;99.90;;;;;;4939236;29;20197;-77
2023/01/15 09:13:28;;;;;;;1.63;0.70;;;7.80;99.90;;;;;;4938951;29;20178;-76
2023/01/15 09:15:57;;;;;;;2.00;0.80;;;7.80;99.90;;;;;;4939655;29;20184;-78
2023/01/15 09:18:22;;;;;;;2.30;0.77;;;7.80;99.90;;;;;;4938670;29;20185;-75
2023/01/15 09:20:51;;;;;;;1.50;0.50;;;7.80;99.90;;;;;;4938925;29;20189;-75
2023/01/15 09:23:16;;;;;;;2.10;0.60;;;7.90;99.90;;;;;;4929384;29;20193;-78
2023/01/15 09:26:04;;;;;;;1.20;0.60;;;7.90;99.90;;;;;;4938845;29;20370;-79
2023/01/15 09:28:30;;;;;;;2.03;0.70;;;7.90;99.90;;;;;;4920029;29;20268;-77
2023/01/15 09:30:55;;;;;;;2.17;0.90;;;7.90;99.90;;;;;;4922285;29;20235;-76
2023/01/15 09:33:21;;;;;;;2.00;0.63;;;8.00;99.90;;;;;;4938424;29;20225;-77
2023/01/15 09:35:47;;;;;;;1.67;0.60;;;7.90;99.90;;;;;;4938633;29;20201;-76
2023/01/15 09:38:20;;;;;;;1.77;0.80;;;7.90;99.90;;;;;;4938682;29;20241;-77
2023/01/15 09:42:04;;;;;;;2.43;0.67;;;8.00;99.90;;;;;;4925457;29;20214;-78
2023/01/15 09:44:17;;;;;;;2.00;0.70;;;7.90;99.90;;;;;;4940849;29;20182;-76
2023/01/15 09:47:01;;;;;;;2.47;0.67;;;8.00;99.90;;;;;;4937823;29;20200;-77
2023/01/15 09:49:26;;;;;;;2.40;0.50;;;8.00;99.90;;;;;;4937569;29;20197;-78
2023/01/15 09:52:17;;;;;;;6.07;1.20;;;8.00;99.90;;;;;;4920605;29;20193;-77
2023/01/15 09:54:54;;;;;;;3.70;0.83;;;8.00;99.90;;;;;;4934637;29;20185;-76
2023/01/15 09:57:23;;;;;;;2.43;0.70;;;8.00;99.90;;;;;;4938353;29;20208;-77
2023/01/15 09:59:53;;;;;;;1.87;0.50;;;8.00;99.90;;;;;;4938489;29;20197;-79
2023/01/15 10:02:36;;;;;;;2.00;0.53;;;8.10;99.90;;;;;;4938235;29;20173;-76
2023/01/15 10:05:55;;;;;;;2.67;1.00;;;8.10;99.90;;;;;;4923581;29;20227;-78
2023/01/15 10:08:33;;;;;;;3.20;0.70;;;8.30;99.90;;;;;;4895760;29;20262;-79
2023/01/15 10:11:22;;;;;;;1.93;0.77;;;8.50;99.90;;;;;;4917349;29;20202;-77
2023/01/15 10:14:17;;;;;;;3.17;0.70;;;8.50;99.90;;;;;;4918836;29;20211;-75
2023/01/15 10:16:43;;;;;;;2.17;0.60;;;8.50;99.90;;;;;;4910322;29;20260;-78
2023/01/15 10:19:11;;;;;;;3.17;0.97;;;8.50;99.90;;;;;;4931264;29;20185;-78
2023/01/15 10:22:06;;;;;;;1.73;0.67;;;8.50;99.90;;;;;;4928224;29;20197;-77
2023/01/15 10:24:41;;;;;;;4.03;1.00;;;8.50;99.90;;;;;;4937184;29;20507;-77
2023/01/15 10:27:22;;;;;;;1.27;0.77;;;8.50;99.90;;;;;;4937955;29;20170;-79
2023/01/15 10:29:59;;;;;;;1.97;0.70;;;8.50;99.90;;;;;;4937290;29;20248;-79
2023/01/15 10:32:38;;;;;;;3.17;0.80;;;8.50;99.90;;;;;;4937101;29;20177;-77
2023/01/15 10:35:10;;;;;;;2.37;0.80;;;8.50;99.90;;;;;;4937832;29;20451;-77
2023/01/15 10:37:55;;;;;;;2.73;0.70;;;8.60;99.90;;;;;;4927163;29;20217;-78
2023/01/15 10:40:43;;;;;;;3.17;1.00;;;8.60;99.90;;;;;;4925255;29;20205;-75
2023/01/15 10:43:42;;;;;;;6.67;1.20;;;8.70;99.90;;;;;;4926488;29;20260;-78
2023/01/15 10:46:12;;;;;;;4.00;1.20;;;8.80;99.90;;;;;;4937200;29;20201;-78
2023/01/15 10:48:44;;;;;;;3.27;1.03;;;9.00;99.90;;;;;;4927936;29;20178;-74
2023/01/15 10:51:31;;;;;;;3.33;0.90;;;9.10;99.90;;;;;;4930692;29;20206;-76
2023/01/15 10:54:39;;;;;;;4.40;0.90;;;9.30;99.90;;;;;;4933465;29;20176;-77
2023/01/15 10:57:23;;;;;;;2.77;1.00;;;9.40;99.90;;;;;;4897440;29;20289;-81
2023/01/15 10:59:57;;;;;;;3.50;1.10;;;9.50;99.90;;;;;;4932445;29;20201;-79
2023/01/15 11:02:38;;;;;;;5.23;1.00;;;9.60;99.90;;;;;;4936989;29;20207;-79
2023/01/15 11:05:05;;;;;;;3.07;0.97;;;9.70;99.90;;;;;;4934203;29;20216;-80
2023/01/15 11:07:46;;;;;;;3.63;1.10;;;9.80;99.90;;;;;;4936337;29;20261;-81
2023/01/15 11:10:14;;;;;;;3.47;1.17;;;9.90;99.90;;;;;;4937685;29;20205;-77
2023/01/15 11:21:23;;;;;;;3.50;1.20;;;10.00;99.90;;;;;;4929875;29;20228;-78
2023/01/15 11:23:49;;;;;;;2.83;0.97;;;10.10;99.90;;;;;;4936884;29;20267;-79
2023/01/15 11:26:24;;;;;;;2.23;0.77;;;10.10;99.90;;;;;;4920303;29;20220;-82
2023/01/15 11:28:51;;;;;;;2.80;0.77;;;10.10;99.90;;;;;;4929882;29;20249;-80
2023/01/15 11:31:16;;;;;;;1.63;0.60;;;10.10;99.90;;;;;;4929377;29;20209;-81
2023/01/15 11:34:04;;;;;;;2.27;0.80;;;10.10;99.90;;;;;;4927568;29;20182;-78
2023/01/15 11:36:33;;;;;;;2.30;0.80;;;10.20;99.90;;;;;;4932635;29;20197;-79
2023/01/15 11:38:58;;;;;;;1.70;0.80;;;10.20;99.90;;;;;;4922214;29;20185;-80
2023/01/15 11:52:54;;;;;;;4.95;1.10;;;10.30;99.90;;;;;;4935920;29;20177;-81
2023/01/15 11:55:26;;;;;;;3.60;1.00;;;10.10;99.90;;;;;;4936911;29;20260;-77
2023/01/15 11:57:52;;;;;;;4.07;0.80;;;10.20;99.90;;;;;;4936674;29;20224;-76
2023/01/15 12:00:29;;;;;;;4.10;0.80;;;10.20;99.90;;;;;;4935570;29;20173;-79
2023/01/15 12:03:04;;;;;;;2.67;0.97;;;10.20;99.90;;;;;;4935036;29;20188;-81
2023/01/15 12:05:34;;;;;;;3.63;0.77;;;10.20;99.90;;;;;;4937375;29;20215;-81
2023/01/15 12:08:30;;;;;;;2.27;0.80;;;10.40;99.90;;;;;;4938195;29;20185;-78
2023/01/15 12:11:33;;;;;;;2.13;0.70;;;10.60;99.90;;;;;;4922272;29;20197;-81
2023/01/15 12:14:17;;;;;;;2.80;1.02;;;10.80;99.90;;;;;;4917823;29;20185;-82
2023/01/15 12:17:00;;;;;;;1.33;0.70;;;10.70;99.90;;;;;;4918532;29;20197;-78
2023/01/15 12:20:05;;;;;;;1.83;0.73;;;10.70;99.90;;;;;;4936742;29;20189;-76
2023/01/15 12:22:41;;;;;;;2.23;0.70;;;10.70;99.90;;;;;;4927561;29;20205;-77
2023/01/15 12:25:17;;;;;;;3.42;0.93;;;10.60;99.90;;;;;;4927096;29;20219;-75
2023/01/15 12:28:07;;;;;;;3.03;0.90;;;10.60;99.90;;;;;;4934832;29;20192;-79
2023/01/15 12:30:40;;;;;;;2.80;0.97;;;10.60;99.90;;;;;;4919184;29;20197;-78
2023/01/15 12:33:26;;;;;;;3.67;0.90;;;10.70;99.90;;;;;;4923075;29;20302;-81
2023/01/15 12:35:59;;;;;;;3.38;1.00;;;10.80;99.90;;;;;;4927371;29;20208;-78
2023/01/15 12:38:34;;;;;;;3.40;0.93;;;10.90;99.90;;;;;;4931896;29;20197;-79
2023/01/15 12:41:09;;;;;;;1.95;0.80;;;10.80;99.90;;;;;;4939312;29;20218;-80
2023/01/15 12:46:28;;;;;;;3.58;1.13;;;10.80;99.90;;;;;;4940479;29;20212;-79
2023/01/15 12:49:28;;;;;;;2.72;1.00;;;10.80;99.90;;;;;;4939587;29;20197;-80
2023/01/15 12:52:23;;;;;;;3.05;0.90;;;10.80;99.90;;;;;;4933423;29;20173;-80
2023/01/15 12:55:23;;;;;;;2.22;0.80;;;10.80;99.90;;;;;;4934183;29;20229;-78
2023/01/15 12:57:53;;;;;;;2.83;0.80;;;10.90;99.90;;;;;;4936790;29;20197;-77
2023/01/15 13:00:30;;;;;;;1.50;0.80;;;10.90;99.90;;;;;;4935464;29;20268;-69
2023/01/15 13:03:11;;;;;;;3.50;1.05;;;10.80;99.90;;;;;;4920737;29;20209;-77
2023/01/15 13:06:02;;;;;;;1.80;0.68;;;10.80;99.90;;;;;;4944781;29;20209;-75
2023/01/15 13:08:37;;;;;;;1.85;0.73;;;10.80;99.90;;;;;;4932236;29;20213;-77
2023/01/15 13:11:06;;;;;;;3.25;0.90;;;10.80;99.90;;;;;;4933501;29;20193;-78
2023/01/15 13:13:36;;;;;;;0.80;0.50;;;10.90;99.90;;;;;;4932451;29;20195;-75
2023/01/15 13:16:13;;;;;;;3.63;0.95;;;10.90;99.90;;;;;;4938476;29;20251;-76
2023/01/15 13:18:57;;;;;;;4.18;0.98;;;11.00;99.90;;;;;;4939511;29;20182;-77
2023/01/15 13:21:27;;;;;;;3.05;0.70;;;11.00;99.90;;;;;;4939045;29;20166;-74
2023/01/15 13:24:20;;;;;;;1.90;0.80;;;11.00;99.90;;;;;;4947091;29;20412;-77
2023/01/15 13:27:07;;;;;;;3.17;0.90;;;10.90;99.90;;;;;;4953993;28;20212;-78
2023/01/15 13:29:53;;;;;;;2.10;0.77;;;10.80;99.90;;;;;;4939004;29;20201;-77
2023/01/15 13:32:28;;;;;;;3.03;0.82;;;10.70;99.90;;;;;;4939583;29;20162;-80
2023/01/15 13:35:19;;;;;;;1.83;0.85;;;10.60;99.90;;;;;;4936348;29;20208;-73
2023/01/15 13:37:50;;;;;;;3.38;0.80;;;10.60;99.90;;;;;;4905769;29;20237;-76
2023/01/15 13:40:54;;;;;;;1.83;0.77;;;10.50;99.90;;;;;;4951194;29;20339;-78
2023/01/15 13:43:37;;;;;;;3.00;0.95;;;10.50;99.90;;;;;;4931000;29;20276;-78
2023/01/15 13:46:06;;;;;;;2.67;0.90;;;10.40;99.90;;;;;;4937151;29;20227;-73
2023/01/15 13:48:41;;;;;;;2.40;0.90;;;10.40;99.90;;;;;;4938048;29;20429;-75
2023/01/15 13:51:28;;;;;;;3.27;0.90;;;10.40;99.90;;;;;;4939002;29;20173;-77
2023/01/15 13:53:58;;;;;;;1.60;0.90;;;10.30;99.90;;;;;;4927263;29;20200;-77
2023/01/15 13:56:34;;;;;;;1.87;0.60;;;10.30;99.90;;;;;;4954542;28;20494;-73
2023/01/15 13:59:04;;;;;;;2.27;0.67;;;10.20;99.90;;;;;;4938806;29;20177;-78
2023/01/15 14:01:32;;;;;;;2.60;0.80;;;10.30;99.90;;;;;;4937241;29;20236;-77
2023/01/15 14:04:11;;;;;;;3.43;0.90;;;10.20;99.90;;;;;;4929877;29;20190;-77
2023/01/15 14:06:43;;;;;;;2.60;0.77;;;10.20;99.90;;;;;;4922602;29;20193;-74
2023/01/15 14:09:10;;;;;;;2.70;0.80;;;10.10;99.90;;;;;;4936241;29;20178;-77
2023/01/15 14:11:59;;;;;;;2.08;0.75;;;10.10;99.90;;;;;;4938689;29;20178;-76
2023/01/15 14:14:29;;;;;;;2.67;0.90;;;10.10;99.90;;;;;;4951682;29;20434;-77
2023/01/15 14:17:15;;;;;;;2.37;0.90;;;10.20;99.90;;;;;;4951008;29;20182;-74